createdAt,value
2023-07-06T00:01:02.659Z,4.78
2023-07-06T00:02:05.843Z,4.70
2023-07-06T00:03:08.821Z,5.07
2023-07-06T00:04:12.102Z,5.13
2023-07-06T00:05:15.546Z,5.85
2023-07-06T00:06:18.822Z,4.75
2023-07-06T00:07:24.494Z,5.18
2023-07-06T00:08:29.248Z,4.32
2023-07-06T00:09:36.941Z,10.00
2023-07-06T00:10:41.033Z,4.90
2023-07-06T00:11:46.100Z,5.88
2023-07-06T00:12:48.996Z,7.68
2023-07-06T00:13:52.042Z,4.57
2023-07-06T00:14:54.899Z,3.72
2023-07-06T00:15:58.021Z,5.85
2023-07-06T00:17:15.650Z,6.25
2023-07-06T00:18:19.037Z,5.60
2023-07-06T00:19:21.932Z,5.03
2023-07-06T00:20:24.993Z,7.40
2023-07-06T00:21:28.399Z,4.55
2023-07-06T00:22:31.299Z,6.85
2023-07-06T00:23:35.035Z,6.40
2023-07-06T00:24:38.524Z,7.30
2023-07-06T00:25:44.577Z,5.40
2023-07-06T00:26:47.704Z,7.00
2023-07-06T00:27:51.129Z,5.18
2023-07-06T00:28:55.083Z,4.97
2023-07-06T00:29:58.355Z,4.80
2023-07-06T00:31:08.923Z,2.63
2023-07-06T00:32:28.190Z,8.40
2023-07-06T00:33:31.361Z,6.88
2023-07-06T00:34:35.858Z,4.68
2023-07-06T00:35:39.102Z,7.97
2023-07-06T00:36:42.425Z,3.92
2023-07-06T00:37:45.356Z,6.57
2023-07-06T00:38:48.698Z,9.32
2023-07-06T00:39:51.910Z,5.47
2023-07-06T00:40:58.011Z,4.05
2023-07-06T00:42:00.836Z,6.45
2023-07-06T00:43:03.676Z,4.97
2023-07-06T00:44:06.671Z,5.63
2023-07-06T00:45:10.746Z,5.68
2023-07-06T00:46:13.954Z,8.70
2023-07-06T00:47:18.007Z,5.47
2023-07-06T00:48:28.079Z,4.38
2023-07-06T00:49:30.963Z,6.78
2023-07-06T00:50:34.137Z,8.23
2023-07-06T00:51:39.093Z,8.73
2023-07-06T00:52:44.626Z,6.15
2023-07-06T00:53:58.800Z,6.63
2023-07-06T00:55:03.574Z,7.93
2023-07-06T00:56:10.029Z,3.25
2023-07-06T00:57:14.137Z,4.70
2023-07-06T00:58:23.949Z,8.27
2023-07-06T00:59:31.708Z,5.90
2023-07-06T01:00:35.946Z,6.55
2023-07-06T01:01:43.484Z,8.35
2023-07-06T01:02:46.556Z,5.07
2023-07-06T01:03:53.830Z,7.93
2023-07-06T01:04:56.714Z,5.65
2023-07-06T01:06:03.511Z,6.05
2023-07-06T01:07:06.668Z,5.85
2023-07-06T01:08:13.203Z,5.50
2023-07-06T01:09:16.599Z,6.18
2023-07-06T01:10:19.604Z,5.60
2023-07-06T01:11:22.724Z,7.28
2023-07-06T01:12:26.065Z,7.20
2023-07-06T01:13:30.326Z,7.68
2023-07-06T01:14:34.273Z,8.25
2023-07-06T01:16:02.382Z,5.53
2023-07-06T01:17:05.259Z,5.45
2023-07-06T01:18:17.099Z,6.80
2023-07-06T01:19:56.410Z,7.53
2023-07-06T01:21:11.188Z,8.60
2023-07-06T01:22:49.756Z,6.13
2023-07-06T01:23:58.625Z,7.00
2023-07-06T01:25:32.840Z,6.45
2023-07-06T01:27:06.518Z,8.82
2023-07-06T01:28:42.985Z,6.05
2023-07-06T01:30:03.741Z,6.47
2023-07-06T01:31:28.055Z,8.23
2023-07-06T01:32:34.034Z,7.22
2023-07-06T01:34:06.552Z,9.88
2023-07-06T01:35:15.282Z,6.85
2023-07-06T01:36:36.304Z,7.22
2023-07-06T01:37:43.438Z,7.57
2023-07-06T01:38:49.893Z,8.43
2023-07-06T01:39:54.793Z,6.95
2023-07-06T01:40:59.465Z,5.90
2023-07-06T01:42:14.362Z,5.10
2023-07-06T01:43:18.694Z,6.15
2023-07-06T01:44:24.644Z,7.50
2023-07-06T01:45:29.999Z,5.28
2023-07-06T01:46:33.006Z,8.55
2023-07-06T01:48:16.497Z,9.50
2023-07-06T01:49:20.184Z,6.53
2023-07-06T01:50:25.573Z,7.82
2023-07-06T01:51:34.376Z,7.88
2023-07-06T01:53:00.162Z,7.25
2023-07-06T01:54:07.110Z,6.72
2023-07-06T01:55:13.716Z,5.45
2023-07-06T01:56:21.085Z,6.65
2023-07-06T01:57:27.022Z,10.18
2023-07-06T01:58:39.144Z,7.93
2023-07-06T01:59:42.129Z,8.48
2023-07-06T02:00:49.368Z,7.32
2023-07-06T02:01:54.146Z,5.40
2023-07-06T02:02:57.126Z,10.43
2023-07-06T02:04:00.305Z,4.53
2023-07-06T02:05:04.621Z,7.25
2023-07-06T02:06:10.721Z,7.90
2023-07-06T02:07:14.692Z,4.78
2023-07-06T02:08:18.384Z,4.93
2023-07-06T02:09:21.953Z,7.90
2023-07-06T02:10:24.940Z,8.73
2023-07-06T02:11:28.090Z,7.68
2023-07-06T02:12:31.032Z,6.70
2023-07-06T02:13:34.097Z,8.15
2023-07-06T02:14:37.097Z,7.40
2023-07-06T02:15:41.920Z,5.30
2023-07-06T02:16:44.952Z,6.28
2023-07-06T02:17:48.326Z,5.80
2023-07-06T02:18:53.944Z,7.63
2023-07-06T02:19:56.822Z,7.20
2023-07-06T02:20:59.743Z,12.32
2023-07-06T02:22:05.748Z,9.30
2023-07-06T02:23:09.912Z,12.63
2023-07-06T02:24:12.811Z,7.22
2023-07-06T02:25:15.871Z,9.73
2023-07-06T02:26:18.841Z,13.57
2023-07-06T02:27:21.907Z,10.93
2023-07-06T02:28:25.295Z,9.90
2023-07-06T02:29:28.572Z,9.40
2023-07-06T02:30:31.417Z,8.70
2023-07-06T02:31:36.811Z,6.68
2023-07-06T02:32:41.148Z,10.18
2023-07-06T02:33:44.033Z,11.68
2023-07-06T02:34:47.353Z,9.43
2023-07-06T02:35:50.747Z,7.53
2023-07-06T02:36:55.526Z,11.65
2023-07-06T02:37:58.622Z,8.35
2023-07-06T02:39:05.136Z,8.75
2023-07-06T02:40:10.024Z,8.88
2023-07-06T02:41:13.979Z,7.88
2023-07-06T02:42:16.842Z,8.85
2023-07-06T02:43:19.695Z,10.18
2023-07-06T02:44:23.496Z,8.27
2023-07-06T02:45:26.482Z,10.32
2023-07-06T02:46:31.437Z,8.10
2023-07-06T02:47:34.481Z,8.02
2023-07-06T02:48:37.461Z,9.48
2023-07-06T02:49:41.564Z,10.68
2023-07-06T02:50:50.529Z,10.25
2023-07-06T02:51:53.525Z,9.85
2023-07-06T02:52:56.570Z,10.13
2023-07-06T02:53:59.461Z,12.18
2023-07-06T02:55:02.449Z,9.25
2023-07-06T02:56:05.657Z,7.95
2023-07-06T02:57:08.552Z,9.77
2023-07-06T02:58:11.393Z,11.55
2023-07-06T02:59:15.177Z,11.98
2023-07-06T03:00:18.444Z,10.90
2023-07-06T03:01:21.908Z,9.40
2023-07-06T03:02:25.093Z,9.35
2023-07-06T03:03:28.150Z,11.73
2023-07-06T03:04:31.139Z,12.45
2023-07-06T03:05:34.971Z,10.40
2023-07-06T03:06:38.968Z,8.68
2023-07-06T03:07:42.730Z,10.15
2023-07-06T03:08:45.954Z,11.32
2023-07-06T03:09:48.967Z,11.68
2023-07-06T03:10:51.874Z,8.43
2023-07-06T03:11:54.835Z,10.38
2023-07-06T03:12:59.286Z,9.95
2023-07-06T03:14:04.317Z,12.55
2023-07-06T03:15:17.396Z,11.93
2023-07-06T03:16:20.619Z,8.98
2023-07-06T03:17:23.521Z,11.57
2023-07-06T03:18:27.661Z,15.57
2023-07-06T03:19:30.802Z,11.50
2023-07-06T03:20:34.127Z,9.52
2023-07-06T03:21:39.391Z,7.50
2023-07-06T03:22:50.123Z,9.90
2023-07-06T03:23:52.985Z,11.52
2023-07-06T03:24:56.506Z,13.38
2023-07-06T03:25:59.911Z,13.25
2023-07-06T03:27:03.908Z,11.93
2023-07-06T03:28:06.938Z,14.45
2023-07-06T03:29:10.682Z,10.02
2023-07-06T03:30:14.685Z,13.38
2023-07-06T03:31:17.604Z,8.48
2023-07-06T03:32:20.667Z,12.68
2023-07-06T03:33:23.618Z,16.50
2023-07-06T03:34:26.502Z,10.82
2023-07-06T03:35:30.042Z,9.80
2023-07-06T03:36:35.353Z,11.60
2023-07-06T03:37:38.958Z,12.23
2023-07-06T03:38:41.914Z,9.00
2023-07-06T03:39:45.714Z,13.95
2023-07-06T03:40:52.061Z,14.40
2023-07-06T03:41:55.042Z,10.60
2023-07-06T03:42:58.089Z,11.00
2023-07-06T03:44:01.073Z,7.03
2023-07-06T03:45:07.076Z,7.72
2023-07-06T03:46:10.406Z,9.73
2023-07-06T03:47:13.364Z,11.68
2023-07-06T03:48:16.884Z,9.70
2023-07-06T03:49:20.661Z,9.82
2023-07-06T03:50:23.602Z,9.68
2023-07-06T03:51:26.715Z,9.80
2023-07-06T03:52:30.082Z,8.27
2023-07-06T03:53:33.399Z,9.50
2023-07-06T03:54:38.185Z,9.45
2023-07-06T03:55:42.509Z,8.57
2023-07-06T03:56:45.549Z,7.70
2023-07-06T03:58:02.584Z,11.88
2023-07-06T03:59:07.289Z,7.60
2023-07-06T04:00:30.008Z,10.50
2023-07-06T04:01:33.244Z,5.40
2023-07-06T04:02:36.325Z,6.82
2023-07-06T04:03:39.400Z,9.82
2023-07-06T04:04:42.839Z,6.90
2023-07-06T04:05:49.824Z,8.32
2023-07-06T04:06:52.997Z,10.00
2023-07-06T04:07:55.969Z,7.90
2023-07-06T04:08:58.966Z,5.07
2023-07-06T04:10:02.286Z,12.25
2023-07-06T04:11:06.092Z,7.95
2023-07-06T04:12:14.817Z,7.63
2023-07-06T04:13:18.037Z,7.22
2023-07-06T04:14:28.156Z,7.70
2023-07-06T04:15:32.505Z,6.18
2023-07-06T04:16:35.436Z,10.27
2023-07-06T04:17:38.455Z,7.63
2023-07-06T04:18:41.395Z,7.50
2023-07-06T04:19:44.702Z,7.68
2023-07-06T04:20:49.814Z,6.90
2023-07-06T04:21:53.906Z,6.40
2023-07-06T04:22:57.798Z,10.13
2023-07-06T04:24:01.198Z,12.93
2023-07-06T04:25:06.570Z,7.70
2023-07-06T04:26:09.658Z,6.38
2023-07-06T04:27:12.567Z,6.78
2023-07-06T04:28:15.751Z,7.55
2023-07-06T04:29:19.040Z,8.00
2023-07-06T04:30:22.004Z,9.02
2023-07-06T04:31:25.036Z,7.70
2023-07-06T04:32:33.081Z,5.47
2023-07-06T04:33:36.046Z,6.18
2023-07-06T04:34:41.853Z,4.93
2023-07-06T04:35:45.136Z,7.65
2023-07-06T04:36:48.569Z,8.05
2023-07-06T04:37:52.289Z,7.78
2023-07-06T04:38:55.370Z,5.90
2023-07-06T04:39:59.089Z,8.00
2023-07-06T04:41:02.428Z,10.10
2023-07-06T04:42:07.007Z,4.57
2023-07-06T04:43:11.173Z,6.00
2023-07-06T04:44:14.124Z,4.25
2023-07-06T04:45:17.648Z,6.13
2023-07-06T04:46:24.100Z,6.60
2023-07-06T04:47:27.628Z,5.55
2023-07-06T04:49:34.192Z,5.75
2023-07-06T04:50:39.086Z,4.82
2023-07-06T04:51:41.929Z,6.97
2023-07-06T04:52:45.791Z,9.90
2023-07-06T04:53:50.064Z,6.45
2023-07-06T04:54:53.034Z,9.40
2023-07-06T04:56:05.397Z,6.65
2023-07-06T04:57:09.542Z,6.70
2023-07-06T04:58:13.072Z,7.18
2023-07-06T04:59:16.012Z,7.35
2023-07-06T05:00:26.049Z,5.38
2023-07-06T05:01:29.150Z,4.90
2023-07-06T05:02:34.045Z,5.65
2023-07-06T05:03:40.248Z,8.23
2023-07-06T05:04:43.373Z,7.78
2023-07-06T05:05:47.380Z,7.05
2023-07-06T05:06:50.306Z,9.48
2023-07-06T05:07:54.031Z,8.98
2023-07-06T05:08:57.118Z,10.32
2023-07-06T05:10:00.030Z,11.05
2023-07-06T05:11:06.720Z,9.85
2023-07-06T05:12:11.716Z,7.75
2023-07-06T05:13:14.634Z,7.53
2023-07-06T05:14:17.550Z,7.97
2023-07-06T05:15:20.926Z,5.05
2023-07-06T05:16:23.789Z,6.82
2023-07-06T05:17:26.744Z,6.85
2023-07-06T05:18:30.311Z,7.65
2023-07-06T05:19:33.941Z,8.57
2023-07-06T05:20:36.854Z,5.93
2023-07-06T05:21:39.874Z,11.23
2023-07-06T05:22:48.972Z,11.80
2023-07-06T05:23:51.798Z,7.50
2023-07-06T05:24:54.868Z,10.63
2023-07-06T05:25:59.004Z,8.55
2023-07-06T05:27:02.409Z,7.22
2023-07-06T05:28:05.652Z,9.05
2023-07-06T05:29:08.554Z,7.72
2023-07-06T05:30:11.870Z,8.23
2023-07-06T05:31:14.858Z,10.25
2023-07-06T05:32:17.859Z,7.82
2023-07-06T05:33:20.801Z,8.82
2023-07-06T05:34:23.776Z,8.93
2023-07-06T05:35:29.604Z,6.50
2023-07-06T05:36:32.480Z,7.25
2023-07-06T05:37:36.471Z,7.22
2023-07-06T05:38:39.745Z,9.02
2023-07-06T05:39:42.603Z,7.10
2023-07-06T05:40:45.568Z,10.55
2023-07-06T05:41:51.157Z,10.00
2023-07-06T05:42:55.856Z,8.52
2023-07-06T05:43:58.910Z,10.65
2023-07-06T05:45:02.097Z,9.07
2023-07-06T05:46:04.925Z,8.82
2023-07-06T05:47:11.190Z,7.93
2023-07-06T05:48:14.974Z,10.55
2023-07-06T05:49:17.858Z,11.07
2023-07-06T05:50:20.866Z,7.10
2023-07-06T05:51:23.738Z,8.10
2023-07-06T05:52:26.596Z,11.10
2023-07-06T05:53:29.774Z,7.80
2023-07-06T05:54:32.785Z,8.88
2023-07-06T05:55:35.712Z,10.77
2023-07-06T05:56:38.785Z,6.80
2023-07-06T05:57:41.669Z,11.43
2023-07-06T05:58:45.886Z,10.55
2023-07-06T05:59:49.778Z,9.73
2023-07-06T06:00:54.237Z,8.32
2023-07-06T06:01:57.950Z,9.98
2023-07-06T06:03:00.998Z,7.30
2023-07-06T06:04:03.982Z,10.90
2023-07-06T06:05:07.386Z,11.43
2023-07-06T06:06:12.732Z,8.55
2023-07-06T06:07:15.884Z,7.55
2023-07-06T06:08:20.057Z,7.28
2023-07-06T06:09:24.337Z,6.30
2023-07-06T06:10:27.297Z,8.60
2023-07-06T06:11:30.327Z,8.15
2023-07-06T06:12:33.443Z,8.13
2023-07-06T06:13:36.525Z,10.77
2023-07-06T06:14:39.556Z,11.55
2023-07-06T06:15:42.632Z,9.70
2023-07-06T06:16:45.717Z,9.43
2023-07-06T06:17:49.698Z,11.30
2023-07-06T06:18:52.597Z,8.18
2023-07-06T06:19:55.511Z,9.00
2023-07-06T06:21:00.157Z,9.05
2023-07-06T06:22:05.930Z,7.88
2023-07-06T06:23:12.283Z,6.35
2023-07-06T06:24:15.206Z,8.73
2023-07-06T06:25:18.249Z,6.35
2023-07-06T06:26:21.300Z,7.05
2023-07-06T06:27:24.279Z,7.05
2023-07-06T06:28:27.599Z,9.40
2023-07-06T06:29:30.538Z,7.78
2023-07-06T06:30:36.708Z,6.70
2023-07-06T06:31:44.579Z,9.07
2023-07-06T06:32:47.594Z,5.35
2023-07-06T06:33:50.556Z,8.77
2023-07-06T06:34:54.249Z,6.07
2023-07-06T06:35:58.070Z,7.90
2023-07-06T06:37:02.109Z,6.22
2023-07-06T06:38:07.912Z,7.95
2023-07-06T06:39:11.341Z,7.75
2023-07-06T06:40:14.391Z,8.40
2023-07-06T06:41:17.533Z,7.65
2023-07-06T06:42:20.811Z,7.32
2023-07-06T06:43:24.948Z,8.10
2023-07-06T06:44:30.640Z,8.68
2023-07-06T06:45:34.537Z,4.93
2023-07-06T06:46:37.403Z,8.98
2023-07-06T06:47:40.418Z,4.68
2023-07-06T06:48:43.648Z,5.60
2023-07-06T06:49:46.438Z,6.70
2023-07-06T06:50:49.557Z,3.92
2023-07-06T06:51:52.467Z,10.68
2023-07-06T06:52:55.384Z,4.18
2023-07-06T06:53:58.352Z,11.57
2023-07-06T06:55:01.200Z,6.57
2023-07-06T06:56:06.233Z,6.20
2023-07-06T06:57:09.214Z,4.35
2023-07-06T06:58:12.220Z,4.65
2023-07-06T06:59:15.258Z,6.53
2023-07-06T07:00:18.741Z,10.57
2023-07-06T07:01:22.231Z,6.10
2023-07-06T07:02:25.290Z,6.57
2023-07-06T07:03:31.118Z,6.30
2023-07-06T07:04:34.010Z,13.38
2023-07-06T07:05:37.174Z,5.32
2023-07-06T07:06:42.882Z,4.70
2023-07-06T07:07:45.812Z,6.63
2023-07-06T07:08:52.747Z,5.07
2023-07-06T07:09:56.308Z,6.25
2023-07-06T07:11:07.232Z,6.47
2023-07-06T07:12:19.990Z,4.60
2023-07-06T07:13:23.070Z,4.75
2023-07-06T07:14:26.162Z,4.85
2023-07-06T07:15:29.058Z,6.05
2023-07-06T07:16:31.998Z,2.30
2023-07-06T07:17:35.501Z,5.25
2023-07-06T07:18:39.942Z,7.90
2023-07-06T07:19:43.206Z,3.28
2023-07-06T07:20:50.678Z,6.20
2023-07-06T07:21:53.641Z,7.38
2023-07-06T07:22:56.743Z,7.22
2023-07-06T07:24:00.542Z,6.20
2023-07-06T07:25:04.543Z,5.40
2023-07-06T07:26:07.445Z,2.60
2023-07-06T07:27:12.839Z,6.63
2023-07-06T07:28:18.128Z,6.63
2023-07-06T07:29:22.436Z,5.55
2023-07-06T07:30:28.014Z,6.53
2023-07-06T07:31:31.249Z,4.55
2023-07-06T07:32:34.773Z,7.57
2023-07-06T07:33:38.914Z,4.25
2023-07-06T07:34:42.306Z,6.68
2023-07-06T07:35:45.276Z,5.18
2023-07-06T07:36:48.496Z,3.65
2023-07-06T07:37:52.754Z,9.35
2023-07-06T07:38:59.613Z,5.97
2023-07-06T07:40:02.546Z,4.80
2023-07-06T07:41:08.316Z,6.07
2023-07-06T07:42:11.818Z,5.70
2023-07-06T07:43:17.251Z,6.35
2023-07-06T07:44:20.283Z,5.97
2023-07-06T07:45:23.612Z,6.32
2023-07-06T07:46:30.517Z,4.50
2023-07-06T07:47:33.480Z,8.50
2023-07-06T07:48:42.625Z,5.70
2023-07-06T07:49:48.478Z,3.47
2023-07-06T07:51:02.889Z,9.82
2023-07-06T07:52:06.579Z,7.05
2023-07-06T07:53:09.457Z,3.75
2023-07-06T07:54:12.464Z,4.30
2023-07-06T07:55:15.725Z,8.13
2023-07-06T07:56:19.557Z,5.35
2023-07-06T07:57:22.611Z,5.05
2023-07-06T07:58:25.654Z,5.05
2023-07-06T07:59:28.580Z,9.43
2023-07-06T08:00:32.673Z,8.15
2023-07-06T08:01:35.576Z,7.25
2023-07-06T08:02:38.646Z,3.97
2023-07-06T08:03:42.068Z,3.92
2023-07-06T08:04:45.795Z,3.72
2023-07-06T08:05:49.603Z,3.53
2023-07-06T08:06:52.667Z,5.50
2023-07-06T08:07:57.368Z,9.88
2023-07-06T08:09:00.400Z,5.72
2023-07-06T08:10:04.259Z,2.90
2023-07-06T08:11:18.196Z,5.43
2023-07-06T08:12:22.005Z,4.43
2023-07-06T08:13:25.090Z,2.78
2023-07-06T08:14:43.955Z,8.75
2023-07-06T08:15:47.327Z,7.97
2023-07-06T08:16:50.462Z,3.95
2023-07-06T08:17:54.352Z,3.33
2023-07-06T08:18:58.586Z,2.75
2023-07-06T08:20:50.608Z,5.22
2023-07-06T08:22:08.333Z,1.58
2023-07-06T08:23:08.310Z,4.45
2023-07-06T08:24:11.194Z,3.75
2023-07-06T08:25:14.618Z,3.85
2023-07-06T08:26:17.969Z,3.45
2023-07-06T08:27:22.850Z,6.88
2023-07-06T08:28:33.051Z,4.63
2023-07-06T08:29:36.103Z,6.55
2023-07-06T08:30:42.320Z,6.55
2023-07-06T08:31:47.599Z,4.70
2023-07-06T08:32:51.567Z,5.80
2023-07-06T08:33:54.449Z,2.85
2023-07-06T08:34:57.348Z,7.10
2023-07-06T08:36:00.404Z,3.22
2023-07-06T08:37:03.287Z,7.07
2023-07-06T08:38:06.330Z,2.53
2023-07-06T08:39:10.368Z,6.43
2023-07-06T08:40:19.563Z,6.90
2023-07-06T08:41:39.810Z,4.03
2023-07-06T08:42:49.484Z,3.17
2023-07-06T08:43:53.377Z,7.15
2023-07-06T08:44:58.165Z,3.28
2023-07-06T08:46:04.692Z,3.72
2023-07-06T08:47:09.785Z,2.28
2023-07-06T08:48:21.022Z,2.97
2023-07-06T08:49:33.769Z,4.15
2023-07-06T08:50:38.513Z,4.68
2023-07-06T08:51:41.506Z,3.53
2023-07-06T08:52:44.412Z,5.00
2023-07-06T08:53:58.896Z,2.85
2023-07-06T08:55:01.929Z,3.05
2023-07-06T08:56:06.118Z,3.70
2023-07-06T08:57:17.252Z,4.93
2023-07-06T08:58:26.618Z,3.60
2023-07-06T08:59:35.134Z,5.03
2023-07-06T09:00:38.065Z,4.10
2023-07-06T09:01:41.005Z,3.65
2023-07-06T09:02:44.616Z,2.22
2023-07-06T09:03:58.640Z,5.05
2023-07-06T09:05:03.200Z,2.75
2023-07-06T09:06:06.073Z,4.22
2023-07-06T09:07:14.585Z,4.32
2023-07-06T09:08:19.086Z,5.22
2023-07-06T09:09:22.199Z,4.97
2023-07-06T09:10:28.732Z,4.82
2023-07-06T09:11:35.634Z,5.28
2023-07-06T09:12:41.099Z,2.15
2023-07-06T09:13:48.827Z,2.13
2023-07-06T09:14:53.581Z,3.78
2023-07-06T09:15:58.584Z,3.10
2023-07-06T09:17:01.998Z,2.47
2023-07-06T09:18:05.148Z,3.45
2023-07-06T09:19:10.265Z,3.58
2023-07-06T09:20:14.159Z,1.70
2023-07-06T09:21:19.567Z,2.92
2023-07-06T09:22:24.259Z,5.22
2023-07-06T09:23:27.269Z,4.18
2023-07-06T09:24:30.241Z,3.72
2023-07-06T09:25:44.124Z,3.40
2023-07-06T09:26:48.316Z,4.45
2023-07-06T09:27:51.717Z,2.60
2023-07-06T09:29:12.336Z,3.00
2023-07-06T09:30:44.606Z,3.20
2023-07-06T09:31:48.771Z,2.65
2023-07-06T09:32:56.297Z,4.03
2023-07-06T09:34:00.455Z,3.90
2023-07-06T09:35:09.879Z,3.30
2023-07-06T09:36:25.391Z,7.47
2023-07-06T09:37:28.644Z,3.33
2023-07-06T09:38:33.170Z,3.38
2023-07-06T09:39:38.287Z,10.18
2023-07-06T09:40:41.417Z,7.15
2023-07-06T09:41:47.231Z,3.50
2023-07-06T09:42:50.991Z,2.10
2023-07-06T09:43:59.316Z,2.83
2023-07-06T09:45:02.274Z,3.95
2023-07-06T09:46:05.622Z,3.80
2023-07-06T09:47:13.421Z,4.00
2023-07-06T09:48:30.448Z,4.90
2023-07-06T09:49:35.985Z,4.22
2023-07-06T09:50:49.833Z,3.13
2023-07-06T09:51:58.534Z,2.28
2023-07-06T09:53:01.960Z,4.32
2023-07-06T09:54:06.833Z,5.28
2023-07-06T09:55:18.993Z,3.95
2023-07-06T09:56:21.837Z,4.25
2023-07-06T09:57:26.429Z,3.47
2023-07-06T09:58:29.573Z,3.75
2023-07-06T09:59:33.318Z,2.80
2023-07-06T10:00:42.090Z,2.08
2023-07-06T10:02:17.037Z,2.55
2023-07-06T10:03:30.419Z,1.95
2023-07-06T10:04:45.959Z,3.08
2023-07-06T10:05:58.172Z,5.85
2023-07-06T10:07:32.000Z,4.22
2023-07-06T10:08:46.516Z,3.17
2023-07-06T10:09:55.089Z,4.97
2023-07-06T10:11:04.241Z,3.72
2023-07-06T10:12:30.525Z,3.67
2023-07-06T10:13:59.750Z,4.50
2023-07-06T10:15:03.732Z,2.10
2023-07-06T10:16:13.021Z,4.75
2023-07-06T10:17:36.914Z,3.75
2023-07-06T10:18:58.857Z,4.93
2023-07-06T10:20:19.498Z,4.95
2023-07-06T10:21:31.413Z,5.35
2023-07-06T10:22:52.659Z,2.28
2023-07-06T10:24:15.848Z,1.88
2023-07-06T10:25:48.900Z,3.05
2023-07-06T10:26:55.065Z,5.35
2023-07-06T10:28:25.871Z,6.13
2023-07-06T10:29:43.088Z,6.38
2023-07-06T10:30:49.626Z,3.08
2023-07-06T10:31:57.395Z,3.40
2023-07-06T10:33:02.197Z,2.03
2023-07-06T10:34:39.974Z,2.65
2023-07-06T10:35:48.446Z,2.55
2023-07-06T10:36:51.324Z,1.63
2023-07-06T10:37:54.363Z,1.25
2023-07-06T10:38:58.163Z,1.77
2023-07-06T10:40:02.700Z,4.13
2023-07-06T10:41:11.990Z,2.63
2023-07-06T10:42:28.459Z,3.53
2023-07-06T10:43:32.653Z,3.28
2023-07-06T10:44:42.504Z,3.47
2023-07-06T10:45:58.405Z,2.13
2023-07-06T10:47:01.571Z,2.20
2023-07-06T10:48:15.816Z,2.83
2023-07-06T10:49:22.775Z,2.55
2023-07-06T10:50:30.561Z,2.05
2023-07-06T10:51:33.619Z,2.35
2023-07-06T10:52:44.605Z,4.22
2023-07-06T10:54:12.958Z,3.63
2023-07-06T10:55:25.552Z,3.67
2023-07-06T10:56:29.913Z,2.25
2023-07-06T10:57:36.369Z,1.52
2023-07-06T10:58:49.847Z,5.28
2023-07-06T10:59:55.721Z,3.80
2023-07-06T11:00:59.672Z,1.33
2023-07-06T11:02:21.710Z,1.88
2023-07-06T11:03:30.365Z,2.30
2023-07-06T11:04:41.900Z,1.10
2023-07-06T11:06:07.433Z,4.90
2023-07-06T11:07:14.948Z,1.60
2023-07-06T11:08:17.794Z,4.45
2023-07-06T11:09:20.787Z,2.00
2023-07-06T11:10:30.302Z,2.85
2023-07-06T11:11:45.079Z,2.00
2023-07-06T11:12:55.600Z,2.72
2023-07-06T11:13:58.550Z,3.05
2023-07-06T11:15:18.452Z,3.83
2023-07-06T11:16:28.748Z,1.55
2023-07-06T11:17:38.583Z,2.42
2023-07-06T11:19:51.295Z,4.32
2023-07-06T11:20:57.605Z,2.10
2023-07-06T11:22:05.152Z,3.03
2023-07-06T11:23:17.545Z,4.65
2023-07-06T11:24:23.107Z,4.47
2023-07-06T11:25:28.416Z,3.30
2023-07-06T11:26:49.419Z,1.33
2023-07-06T11:27:55.261Z,3.20
2023-07-06T11:28:58.144Z,2.85
2023-07-06T11:30:14.666Z,4.80
2023-07-06T11:31:34.816Z,4.80
2023-07-06T11:32:49.487Z,1.88
2023-07-06T11:34:02.258Z,4.30
2023-07-06T11:35:11.209Z,2.17
2023-07-06T11:36:21.864Z,1.67
2023-07-06T11:37:49.138Z,4.38
2023-07-06T11:39:21.064Z,2.60
2023-07-06T11:40:43.159Z,4.82
2023-07-06T11:41:55.417Z,4.00
2023-07-06T11:43:16.885Z,2.20
2023-07-06T11:44:40.951Z,6.47
2023-07-06T11:45:53.451Z,1.50
2023-07-06T11:46:56.943Z,2.35
2023-07-06T11:48:27.899Z,3.35
2023-07-06T11:49:42.666Z,2.70
2023-07-06T11:50:48.517Z,1.95
2023-07-06T11:51:52.228Z,2.10
2023-07-06T11:53:11.520Z,2.10
2023-07-06T11:54:35.356Z,3.28
2023-07-06T11:55:56.897Z,2.17
2023-07-06T11:57:38.592Z,1.95
2023-07-06T11:58:45.346Z,2.65
2023-07-06T11:59:54.181Z,3.65
2023-07-06T12:00:58.936Z,2.15
2023-07-06T12:02:01.952Z,1.67
2023-07-06T12:03:12.019Z,3.08
2023-07-06T12:04:19.874Z,5.57
2023-07-06T12:05:31.460Z,2.67
2023-07-06T12:06:34.411Z,1.83
2023-07-06T12:07:37.977Z,1.27
2023-07-06T12:08:41.194Z,2.17
2023-07-06T12:09:48.194Z,2.53
2023-07-06T12:10:52.890Z,1.85
2023-07-06T12:12:09.640Z,4.75
2023-07-06T12:13:41.281Z,3.65
2023-07-06T12:14:44.346Z,3.65
2023-07-06T12:15:49.043Z,3.65
2023-07-06T12:16:52.364Z,3.22
2023-07-06T12:18:02.447Z,3.38
2023-07-06T12:19:14.264Z,5.88
2023-07-06T12:20:18.948Z,2.53
2023-07-06T12:21:32.710Z,2.38
2023-07-06T12:22:35.602Z,3.08
2023-07-06T12:23:38.623Z,2.13
2023-07-06T12:24:41.677Z,4.18
2023-07-06T12:25:44.878Z,1.73
2023-07-06T12:26:52.085Z,2.45
2023-07-06T12:28:01.849Z,3.58
2023-07-06T12:29:04.808Z,2.20
2023-07-06T12:30:08.342Z,2.72
2023-07-06T12:31:11.609Z,4.57
2023-07-06T12:32:22.684Z,3.15
2023-07-06T12:33:26.633Z,6.68
2023-07-06T12:34:34.103Z,4.00
2023-07-06T12:35:37.002Z,3.33
2023-07-06T12:36:40.234Z,2.08
2023-07-06T12:37:43.316Z,1.63
2023-07-06T12:38:48.968Z,3.20
2023-07-06T12:39:51.994Z,2.45
2023-07-06T12:41:14.805Z,4.20
2023-07-06T12:42:21.975Z,5.68
2023-07-06T12:43:30.113Z,2.75
2023-07-06T12:44:32.998Z,1.73
2023-07-06T12:45:36.112Z,3.03
2023-07-06T12:46:39.140Z,1.33
2023-07-06T12:47:42.614Z,2.47
2023-07-06T12:48:48.007Z,3.00
2023-07-06T12:49:57.053Z,4.65
2023-07-06T12:51:05.480Z,1.83
2023-07-06T12:52:12.161Z,4.20
2023-07-06T12:53:23.229Z,2.72
2023-07-06T12:54:27.202Z,4.10
2023-07-06T12:55:33.485Z,3.13
2023-07-06T12:56:39.121Z,1.73
2023-07-06T12:57:42.655Z,4.82
2023-07-06T12:58:54.944Z,0.98
2023-07-06T13:00:18.877Z,2.95
2023-07-06T13:01:27.060Z,4.65
2023-07-06T13:02:35.159Z,2.63
2023-07-06T13:03:58.671Z,3.35
2023-07-06T13:05:16.390Z,2.35
2023-07-06T13:06:21.230Z,2.08
2023-07-06T13:07:27.508Z,2.60
2023-07-06T13:08:31.564Z,3.20
2023-07-06T13:09:34.565Z,3.05
2023-07-06T13:10:40.365Z,3.33
2023-07-06T13:11:47.665Z,4.00
2023-07-06T13:12:52.555Z,1.95
2023-07-06T13:14:04.819Z,1.30
2023-07-06T13:15:08.268Z,2.13
2023-07-06T13:16:18.889Z,3.08
2023-07-06T13:17:27.549Z,2.15
2023-07-06T13:18:31.659Z,1.45
2023-07-06T13:19:36.341Z,1.77
2023-07-06T13:20:39.150Z,1.83
2023-07-06T13:21:42.398Z,2.85
2023-07-06T13:22:45.624Z,2.53
2023-07-06T13:23:49.734Z,1.80
2023-07-06T13:24:52.763Z,0.98
2023-07-06T13:25:57.370Z,3.10
2023-07-06T13:27:05.360Z,2.05
2023-07-06T13:28:20.657Z,2.30
2023-07-06T13:29:24.234Z,2.70
2023-07-06T13:30:29.637Z,4.15
2023-07-06T13:31:52.034Z,2.08
2023-07-06T13:32:58.662Z,1.67
2023-07-06T13:34:01.761Z,2.67
2023-07-06T13:35:04.880Z,2.03
2023-07-06T13:36:18.420Z,1.80
2023-07-06T13:37:25.822Z,2.50
2023-07-06T13:38:29.842Z,5.10
2023-07-06T13:39:32.797Z,2.30
2023-07-06T13:40:38.623Z,3.30
2023-07-06T13:41:41.524Z,3.38
2023-07-06T13:42:44.914Z,2.33
2023-07-06T13:43:48.346Z,3.35
2023-07-06T13:44:51.721Z,2.35
2023-07-06T13:45:54.729Z,2.08
2023-07-06T13:46:57.694Z,4.32
2023-07-06T13:48:00.580Z,3.30
2023-07-06T13:49:03.954Z,2.75
2023-07-06T13:50:07.390Z,3.00
2023-07-06T13:51:12.357Z,1.45
2023-07-06T13:52:15.709Z,2.92
2023-07-06T13:53:19.062Z,3.80
2023-07-06T13:54:25.808Z,1.90
2023-07-06T13:55:31.594Z,2.03
2023-07-06T13:56:34.976Z,3.67
2023-07-06T13:57:37.888Z,2.22
2023-07-06T13:58:42.871Z,1.58
2023-07-06T13:59:47.684Z,1.42
2023-07-06T14:00:51.300Z,1.23
2023-07-06T14:01:54.245Z,3.17
2023-07-06T14:02:57.927Z,3.22
2023-07-06T14:04:04.575Z,3.70
2023-07-06T14:05:14.435Z,1.98
2023-07-06T14:06:19.976Z,2.45
2023-07-06T14:07:22.872Z,5.47
2023-07-06T14:08:27.033Z,3.72
2023-07-06T14:09:29.953Z,6.00
2023-07-06T14:10:33.753Z,1.38
2023-07-06T14:11:37.653Z,3.38
2023-07-06T14:12:40.716Z,3.35
2023-07-06T14:13:46.812Z,1.70
2023-07-06T14:14:51.104Z,3.22
2023-07-06T14:15:54.094Z,4.45
2023-07-06T14:16:57.545Z,3.47
2023-07-06T14:18:01.383Z,2.72
2023-07-06T14:19:06.770Z,1.17
2023-07-06T14:20:13.682Z,1.08
2023-07-06T14:21:17.206Z,2.95
2023-07-06T14:22:20.433Z,4.13
2023-07-06T14:23:23.549Z,2.63
2023-07-06T14:24:27.154Z,2.45
2023-07-06T14:25:30.230Z,2.20
2023-07-06T14:26:33.247Z,2.90
2023-07-06T14:27:37.309Z,3.75
2023-07-06T14:28:40.350Z,1.40
2023-07-06T14:29:48.122Z,2.67
2023-07-06T14:30:51.074Z,3.85
2023-07-06T14:31:54.878Z,1.80
2023-07-06T14:33:04.313Z,2.85
2023-07-06T14:34:07.427Z,2.03
2023-07-06T14:35:11.566Z,2.17
2023-07-06T14:36:15.076Z,3.53
2023-07-06T14:37:18.092Z,3.03
2023-07-06T14:38:21.003Z,2.33
2023-07-06T14:39:23.932Z,6.05
2023-07-06T14:40:26.993Z,4.50
2023-07-06T14:41:30.629Z,3.42
2023-07-06T14:42:33.642Z,1.13
2023-07-06T14:43:36.614Z,1.90
2023-07-06T14:44:39.553Z,3.05